sensor_id;sensor_type;location;lat;lon;timestamp;P1;durP1;ratioP1;P2;durP2;ratioP2
46355;SDS011;32066;49.474;11.106;2022-11-27T00:00:28;25.17;;;11.82;;
46355;SDS011;32066;49.474;11.106;2022-11-27T00:02:54;25.90;;;12.10;;
46355;SDS011;32066;49.474;11.106;2022-11-27T00:05:21;23.20;;;12.55;;
46355;SDS011;32066;49.474;11.106;2022-11-27T00:07:48;20.77;;;10.52;;
46355;SDS011;32066;49.474;11.106;2022-11-27T00:10:16;14.57;;;8.95;;
46355;SDS011;32066;49.474;11.106;2022-11-27T00:12:43;10.85;;;8.20;;
46355;SDS011;32066;49.474;11.106;2022-11-27T00:15:10;12.32;;;7.88;;
46355;SDS011;32066;49.474;11.106;2022-11-27T00:17:37;10.18;;;7.78;;
46355;SDS011;32066;49.474;11.106;2022-11-27T00:20:04;11.05;;;7.43;;
46355;SDS011;32066;49.474;11.106;2022-11-27T00:22:32;11.80;;;7.97;;
46355;SDS011;32066;49.474;11.106;2022-11-27T00:24:59;11.80;;;7.90;;
46355;SDS011;32066;49.474;11.106;2022-11-27T00:27:27;10.00;;;7.65;;
46355;SDS011;32066;49.474;11.106;2022-11-27T00:29:54;11.07;;;8.00;;
46355;SDS011;32066;49.474;11.106;2022-11-27T00:32:21;9.98;;;7.72;;
46355;SDS011;32066;49.474;11.106;2022-11-27T00:34:48;11.95;;;7.93;;
46355;SDS011;32066;49.474;11.106;2022-11-27T00:37:14;10.32;;;7.53;;
46355;SDS011;32066;49.474;11.106;2022-11-27T00:39:41;10.10;;;7.50;;
46355;SDS011;32066;49.474;11.106;2022-11-27T00:42:08;10.55;;;7.88;;
46355;SDS011;32066;49.474;11.106;2022-11-27T00:44:36;11.80;;;8.57;;
46355;SDS011;32066;49.474;11.106;2022-11-27T00:47:03;10.48;;;7.55;;
46355;SDS011;32066;49.474;11.106;2022-11-27T00:49:30;11.85;;;8.95;;
46355;SDS011;32066;49.474;11.106;2022-11-27T00:51:57;11.13;;;8.30;;
46355;SDS011;32066;49.474;11.106;2022-11-27T00:54:24;11.98;;;8.57;;
46355;SDS011;32066;49.474;11.106;2022-11-27T00:56:51;10.98;;;7.90;;
46355;SDS011;32066;49.474;11.106;2022-11-27T00:59:17;10.75;;;7.82;;
46355;SDS011;32066;49.474;11.106;2022-11-27T01:01:46;10.45;;;7.72;;
46355;SDS011;32066;49.474;11.106;2022-11-27T01:04:14;10.32;;;7.70;;
46355;SDS011;32066;49.474;11.106;2022-11-27T01:06:41;12.88;;;8.32;;
46355;SDS011;32066;49.474;11.106;2022-11-27T01:09:08;10.10;;;7.50;;
46355;SDS011;32066;49.474;11.106;2022-11-27T01:11:36;10.90;;;8.15;;
46355;SDS011;32066;49.474;11.106;2022-11-27T01:14:04;10.48;;;7.88;;
46355;SDS011;32066;49.474;11.106;2022-11-27T01:16:33;10.98;;;7.80;;
46355;SDS011;32066;49.474;11.106;2022-11-27T01:19:03;11.07;;;7.72;;
46355;SDS011;32066;49.474;11.106;2022-11-27T01:21:30;10.45;;;7.22;;
46355;SDS011;32066;49.474;11.106;2022-11-27T01:23:59;10.10;;;7.10;;
46355;SDS011;32066;49.474;11.106;2022-11-27T01:26:26;10.10;;;7.05;;
46355;SDS011;32066;49.474;11.106;2022-11-27T01:28:54;9.93;;;6.88;;
46355;SDS011;32066;49.474;11.106;2022-11-27T01:31:23;10.38;;;7.93;;
46355;SDS011;32066;49.474;11.106;2022-11-27T01:33:51;10.27;;;7.30;;
46355;SDS011;32066;49.474;11.106;2022-11-27T01:36:20;9.60;;;7.13;;
46355;SDS011;32066;49.474;11.106;2022-11-27T01:38:47;10.70;;;7.15;;
46355;SDS011;32066;49.474;11.106;2022-11-27T01:41:15;9.82;;;7.13;;
46355;SDS011;32066;49.474;11.106;2022-11-27T01:43:48;9.75;;;7.15;;
46355;SDS011;32066;49.474;11.106;2022-11-27T01:46:28;10.63;;;7.60;;
46355;SDS011;32066;49.474;11.106;2022-11-27T01:49:02;9.73;;;6.63;;
46355;SDS011;32066;49.474;11.106;2022-11-27T01:51:43;9.35;;;6.57;;
46355;SDS011;32066;49.474;11.106;2022-11-27T01:54:12;9.88;;;7.40;;
46355;SDS011;32066;49.474;11.106;2022-11-27T01:56:42;10.23;;;7.13;;
46355;SDS011;32066;49.474;11.106;2022-11-27T01:59:11;9.38;;;6.78;;
46355;SDS011;32066;49.474;11.106;2022-11-27T02:01:38;8.88;;;6.53;;
46355;SDS011;32066;49.474;11.106;2022-11-27T02:04:05;9.68;;;6.68;;
46355;SDS011;32066;49.474;11.106;2022-11-27T02:06:32;9.73;;;6.80;;
46355;SDS011;32066;49.474;11.106;2022-11-27T02:09:00;11.25;;;7.72;;
46355;SDS011;32066;49.474;11.106;2022-11-27T02:11:29;9.02;;;6.70;;
46355;SDS011;32066;49.474;11.106;2022-11-27T02:14:02;9.27;;;6.63;;
46355;SDS011;32066;49.474;11.106;2022-11-27T02:16:37;10.02;;;6.60;;
46355;SDS011;32066;49.474;11.106;2022-11-27T02:19:12;9.60;;;6.90;;
46355;SDS011;32066;49.474;11.106;2022-11-27T02:21:49;9.70;;;6.75;;
46355;SDS011;32066;49.474;11.106;2022-11-27T02:24:31;9.18;;;6.43;;
46355;SDS011;32066;49.474;11.106;2022-11-27T02:27:21;8.80;;;6.40;;
46355;SDS011;32066;49.474;11.106;2022-11-27T02:29:59;9.55;;;6.28;;
46355;SDS011;32066;49.474;11.106;2022-11-27T02:32:31;9.60;;;7.35;;
46355;SDS011;32066;49.474;11.106;2022-11-27T02:35:05;8.82;;;6.60;;
46355;SDS011;32066;49.474;11.106;2022-11-27T02:37:38;10.50;;;6.28;;
46355;SDS011;32066;49.474;11.106;2022-11-27T02:40:11;10.10;;;6.25;;
46355;SDS011;32066;49.474;11.106;2022-11-27T02:42:42;9.80;;;6.78;;
46355;SDS011;32066;49.474;11.106;2022-11-27T02:45:16;9.75;;;6.50;;
46355;SDS011;32066;49.474;11.106;2022-11-27T02:47:46;9.48;;;6.03;;
46355;SDS011;32066;49.474;11.106;2022-11-27T02:50:15;8.48;;;5.95;;
46355;SDS011;32066;49.474;11.106;2022-11-27T02:52:45;9.48;;;6.28;;
46355;SDS011;32066;49.474;11.106;2022-11-27T02:55:15;9.00;;;5.78;;
46355;SDS011;32066;49.474;11.106;2022-11-27T02:57:45;8.95;;;6.10;;
46355;SDS011;32066;49.474;11.106;2022-11-27T03:00:15;7.63;;;5.47;;
46355;SDS011;32066;49.474;11.106;2022-11-27T03:02:44;8.55;;;6.07;;
46355;SDS011;32066;49.474;11.106;2022-11-27T03:05:14;7.57;;;5.32;;
46355;SDS011;32066;49.474;11.106;2022-11-27T03:07:46;9.98;;;5.78;;
46355;SDS011;32066;49.474;11.106;2022-11-27T03:10:18;7.55;;;5.63;;
46355;SDS011;32066;49.474;11.106;2022-11-27T03:12:49;8.93;;;5.72;;
46355;SDS011;32066;49.474;11.106;2022-11-27T03:15:17;7.20;;;4.93;;
46355;SDS011;32066;49.474;11.106;2022-11-27T03:17:48;9.10;;;5.63;;
46355;SDS011;32066;49.474;11.106;2022-11-27T03:20:20;7.97;;;5.43;;
46355;SDS011;32066;49.474;11.106;2022-11-27T03:22:51;8.57;;;5.22;;
46355;SDS011;32066;49.474;11.106;2022-11-27T03:25:19;8.63;;;5.53;;
46355;SDS011;32066;49.474;11.106;2022-11-27T03:27:47;6.90;;;5.00;;
46355;SDS011;32066;49.474;11.106;2022-11-27T03:30:19;8.43;;;5.70;;
46355;SDS011;32066;49.474;11.106;2022-11-27T03:32:46;8.45;;;5.05;;
46355;SDS011;32066;49.474;11.106;2022-11-27T03:35:13;8.98;;;5.18;;
46355;SDS011;32066;49.474;11.106;2022-11-27T03:37:43;6.55;;;4.35;;
46355;SDS011;32066;49.474;11.106;2022-11-27T03:40:11;8.45;;;5.05;;
46355;SDS011;32066;49.474;11.106;2022-11-27T03:42:42;7.35;;;5.22;;
46355;SDS011;32066;49.474;11.106;2022-11-27T03:45:23;7.30;;;5.03;;
46355;SDS011;32066;49.474;11.106;2022-11-27T03:47:59;7.78;;;4.85;;
46355;SDS011;32066;49.474;11.106;2022-11-27T03:50:40;7.75;;;4.55;;
46355;SDS011;32066;49.474;11.106;2022-11-27T03:53:16;8.18;;;5.40;;
46355;SDS011;32066;49.474;11.106;2022-11-27T03:55:49;8.02;;;4.40;;
46355;SDS011;32066;49.474;11.106;2022-11-27T03:58:21;6.63;;;4.07;;
46355;SDS011;32066;49.474;11.106;2022-11-27T04:00:55;6.78;;;4.30;;
46355;SDS011;32066;49.474;11.106;2022-11-27T04:03:26;6.88;;;4.10;;
46355;SDS011;32066;49.474;11.106;2022-11-27T04:05:54;7.45;;;4.68;;
46355;SDS011;32066;49.474;11.106;2022-11-27T04:08:21;9.18;;;4.32;;
46355;SDS011;32066;49.474;11.106;2022-11-27T04:10:48;7.38;;;4.28;;
46355;SDS011;32066;49.474;11.106;2022-11-27T04:13:15;6.90;;;4.68;;
46355;SDS011;32066;49.474;11.106;2022-11-27T04:15:42;6.90;;;4.45;;
46355;SDS011;32066;49.474;11.106;2022-11-27T04:18:10;6.53;;;4.30;;
46355;SDS011;32066;49.474;11.106;2022-11-27T04:20:37;7.70;;;4.13;;
46355;SDS011;32066;49.474;11.106;2022-11-27T04:23:04;6.80;;;4.25;;
46355;SDS011;32066;49.474;11.106;2022-11-27T04:25:30;5.75;;;3.83;;
46355;SDS011;32066;49.474;11.106;2022-11-27T04:27:57;6.70;;;4.22;;
46355;SDS011;32066;49.474;11.106;2022-11-27T04:30:24;6.10;;;4.10;;
46355;SDS011;32066;49.474;11.106;2022-11-27T04:32:51;6.53;;;4.10;;
46355;SDS011;32066;49.474;11.106;2022-11-27T04:35:19;7.70;;;4.20;;
46355;SDS011;32066;49.474;11.106;2022-11-27T04:37:46;6.43;;;4.10;;
46355;SDS011;32066;49.474;11.106;2022-11-27T04:40:13;6.15;;;3.88;;
46355;SDS011;32066;49.474;11.106;2022-11-27T04:42:40;6.43;;;4.20;;
46355;SDS011;32066;49.474;11.106;2022-11-27T04:45:07;5.82;;;3.60;;
46355;SDS011;32066;49.474;11.106;2022-11-27T04:47:34;5.82;;;3.65;;
46355;SDS011;32066;49.474;11.106;2022-11-27T04:50:01;5.80;;;3.63;;
46355;SDS011;32066;49.474;11.106;2022-11-27T04:52:29;5.22;;;3.63;;
46355;SDS011;32066;49.474;11.106;2022-11-27T04:54:56;6.03;;;3.90;;
46355;SDS011;32066;49.474;11.106;2022-11-27T04:57:23;6.00;;;3.83;;
46355;SDS011;32066;49.474;11.106;2022-11-27T04:59:50;6.88;;;4.38;;
46355;SDS011;32066;49.474;11.106;2022-11-27T05:02:17;7.85;;;4.25;;
46355;SDS011;32066;49.474;11.106;2022-11-27T05:04:44;7.45;;;4.00;;
46355;SDS011;32066;49.474;11.106;2022-11-27T05:07:11;7.90;;;4.63;;
46355;SDS011;32066;49.474;11.106;2022-11-27T05:09:39;7.07;;;4.50;;
46355;SDS011;32066;49.474;11.106;2022-11-27T05:12:06;8.52;;;4.55;;
46355;SDS011;32066;49.474;11.106;2022-11-27T05:14:32;7.32;;;4.50;;
46355;SDS011;32066;49.474;11.106;2022-11-27T05:16:59;8.38;;;4.93;;
46355;SDS011;32066;49.474;11.106;2022-11-27T05:19:28;8.05;;;4.70;;
46355;SDS011;32066;49.474;11.106;2022-11-27T05:21:55;7.15;;;4.53;;
46355;SDS011;32066;49.474;11.106;2022-11-27T05:24:24;7.95;;;4.63;;
46355;SDS011;32066;49.474;11.106;2022-11-27T05:26:53;8.07;;;4.70;;
46355;SDS011;32066;49.474;11.106;2022-11-27T05:29:20;7.57;;;4.13;;
46355;SDS011;32066;49.474;11.106;2022-11-27T05:31:48;7.60;;;3.97;;
46355;SDS011;32066;49.474;11.106;2022-11-27T05:34:15;7.38;;;4.05;;
46355;SDS011;32066;49.474;11.106;2022-11-27T05:36:42;7.32;;;4.43;;
46355;SDS011;32066;49.474;11.106;2022-11-27T05:39:10;7.63;;;4.00;;
46355;SDS011;32066;49.474;11.106;2022-11-27T05:41:38;7.10;;;4.53;;
46355;SDS011;32066;49.474;11.106;2022-11-27T05:44:09;7.10;;;4.32;;
46355;SDS011;32066;49.474;11.106;2022-11-27T05:46:37;7.15;;;4.07;;
46355;SDS011;32066;49.474;11.106;2022-11-27T05:49:04;9.68;;;4.43;;
46355;SDS011;32066;49.474;11.106;2022-11-27T05:51:31;7.40;;;4.32;;
46355;SDS011;32066;49.474;11.106;2022-11-27T05:53:58;8.85;;;4.53;;
46355;SDS011;32066;49.474;11.106;2022-11-27T05:56:25;10.98;;;5.05;;
46355;SDS011;32066;49.474;11.106;2022-11-27T05:58:51;9.18;;;4.60;;
46355;SDS011;32066;49.474;11.106;2022-11-27T06:01:19;10.55;;;5.07;;
46355;SDS011;32066;49.474;11.106;2022-11-27T06:03:46;7.95;;;5.15;;
46355;SDS011;32066;49.474;11.106;2022-11-27T06:06:14;8.77;;;4.88;;
46355;SDS011;32066;49.474;11.106;2022-11-27T06:08:43;8.35;;;5.05;;
46355;SDS011;32066;49.474;11.106;2022-11-27T06:11:11;8.02;;;5.07;;
46355;SDS011;32066;49.474;11.106;2022-11-27T06:13:39;8.82;;;4.88;;
46355;SDS011;32066;49.474;11.106;2022-11-27T06:16:07;11.45;;;5.88;;
46355;SDS011;32066;49.474;11.106;2022-11-27T06:18:37;10.57;;;5.93;;
46355;SDS011;32066;49.474;11.106;2022-11-27T06:21:05;10.63;;;6.95;;
46355;SDS011;32066;49.474;11.106;2022-11-27T06:23:32;12.90;;;7.38;;
46355;SDS011;32066;49.474;11.106;2022-11-27T06:26:07;11.05;;;7.07;;
46355;SDS011;32066;49.474;11.106;2022-11-27T06:28:38;14.05;;;8.32;;
46355;SDS011;32066;49.474;11.106;2022-11-27T06:31:06;12.38;;;7.22;;
46355;SDS011;32066;49.474;11.106;2022-11-27T06:33:33;10.63;;;6.70;;
46355;SDS011;32066;49.474;11.106;2022-11-27T06:36:02;10.82;;;6.53;;
46355;SDS011;32066;49.474;11.106;2022-11-27T06:38:30;11.52;;;7.00;;
46355;SDS011;32066;49.474;11.106;2022-11-27T06:41:00;10.07;;;7.18;;
46355;SDS011;32066;49.474;11.106;2022-11-27T06:43:28;11.10;;;6.85;;
46355;SDS011;32066;49.474;11.106;2022-11-27T06:45:55;11.70;;;6.95;;
46355;SDS011;32066;49.474;11.106;2022-11-27T06:48:22;10.07;;;6.70;;
46355;SDS011;32066;49.474;11.106;2022-11-27T06:50:49;10.68;;;6.82;;
46355;SDS011;32066;49.474;11.106;2022-11-27T06:53:17;10.68;;;6.97;;
46355;SDS011;32066;49.474;11.106;2022-11-27T06:55:44;11.70;;;7.53;;
46355;SDS011;32066;49.474;11.106;2022-11-27T06:58:11;11.57;;;7.68;;
46355;SDS011;32066;49.474;11.106;2022-11-27T07:00:38;12.93;;;7.63;;
46355;SDS011;32066;49.474;11.106;2022-11-27T07:03:05;11.25;;;7.28;;
46355;SDS011;32066;49.474;11.106;2022-11-27T07:05:32;11.07;;;7.50;;
46355;SDS011;32066;49.474;11.106;2022-11-27T07:07:59;10.13;;;7.07;;
46355;SDS011;32066;49.474;11.106;2022-11-27T07:10:27;11.50;;;6.90;;
46355;SDS011;32066;49.474;11.106;2022-11-27T07:12:54;12.93;;;7.40;;
46355;SDS011;32066;49.474;11.106;2022-11-27T07:15:20;13.57;;;7.30;;
46355;SDS011;32066;49.474;11.106;2022-11-27T07:17:47;11.05;;;7.30;;
46355;SDS011;32066;49.474;11.106;2022-11-27T07:20:14;13.40;;;8.10;;
46355;SDS011;32066;49.474;11.106;2022-11-27T07:22:41;13.20;;;7.95;;
46355;SDS011;32066;49.474;11.106;2022-11-27T07:25:08;15.90;;;8.70;;
46355;SDS011;32066;49.474;11.106;2022-11-27T07:27:36;15.23;;;8.48;;
46355;SDS011;32066;49.474;11.106;2022-11-27T07:30:03;14.73;;;8.80;;
46355;SDS011;32066;49.474;11.106;2022-11-27T07:32:31;12.10;;;8.05;;
46355;SDS011;32066;49.474;11.106;2022-11-27T07:34:58;20.80;;;8.93;;
46355;SDS011;32066;49.474;11.106;2022-11-27T07:37:28;19.83;;;8.95;;
46355;SDS011;32066;49.474;11.106;2022-11-27T07:39:56;17.67;;;8.95;;
46355;SDS011;32066;49.474;11.106;2022-11-27T07:42:22;22.42;;;10.57;;
46355;SDS011;32066;49.474;11.106;2022-11-27T07:44:51;21.05;;;10.52;;
46355;SDS011;32066;49.474;11.106;2022-11-27T07:47:17;22.98;;;10.05;;
46355;SDS011;32066;49.474;11.106;2022-11-27T07:49:44;20.40;;;9.02;;
46355;SDS011;32066;49.474;11.106;2022-11-27T07:52:11;17.50;;;9.07;;
46355;SDS011;32066;49.474;11.106;2022-11-27T07:54:38;20.35;;;10.52;;
46355;SDS011;32066;49.474;11.106;2022-11-27T07:57:04;19.98;;;9.95;;
46355;SDS011;32066;49.474;11.106;2022-11-27T07:59:31;19.90;;;9.57;;
46355;SDS011;32066;49.474;11.106;2022-11-27T08:01:59;15.48;;;8.35;;
46355;SDS011;32066;49.474;11.106;2022-11-27T08:04:26;16.50;;;8.80;;
46355;SDS011;32066;49.474;11.106;2022-11-27T08:06:53;16.20;;;8.55;;
46355;SDS011;32066;49.474;11.106;2022-11-27T08:09:21;15.68;;;8.63;;
46355;SDS011;32066;49.474;11.106;2022-11-27T08:11:48;14.95;;;8.65;;
46355;SDS011;32066;49.474;11.106;2022-11-27T08:14:15;14.50;;;8.07;;
46355;SDS011;32066;49.474;11.106;2022-11-27T08:16:43;16.05;;;8.07;;
46355;SDS011;32066;49.474;11.106;2022-11-27T08:19:11;15.80;;;9.05;;
46355;SDS011;32066;49.474;11.106;2022-11-27T08:21:38;16.23;;;8.68;;
46355;SDS011;32066;49.474;11.106;2022-11-27T08:24:05;15.98;;;8.50;;
46355;SDS011;32066;49.474;11.106;2022-11-27T08:26:32;18.65;;;8.75;;
46355;SDS011;32066;49.474;11.106;2022-11-27T08:28:59;15.48;;;8.30;;
46355;SDS011;32066;49.474;11.106;2022-11-27T08:31:27;15.82;;;8.65;;
46355;SDS011;32066;49.474;11.106;2022-11-27T08:33:54;17.30;;;8.95;;
46355;SDS011;32066;49.474;11.106;2022-11-27T08:36:24;16.92;;;8.20;;
46355;SDS011;32066;49.474;11.106;2022-11-27T08:38:52;18.15;;;9.63;;
46355;SDS011;32066;49.474;11.106;2022-11-27T08:41:18;18.15;;;8.73;;
46355;SDS011;32066;49.474;11.106;2022-11-27T08:43:45;16.73;;;8.65;;
46355;SDS011;32066;49.474;11.106;2022-11-27T08:46:12;16.80;;;8.88;;
46355;SDS011;32066;49.474;11.106;2022-11-27T08:48:39;15.85;;;8.95;;
46355;SDS011;32066;49.474;11.106;2022-11-27T08:51:08;15.13;;;8.25;;
46355;SDS011;32066;49.474;11.106;2022-11-27T08:53:37;17.88;;;9.10;;
46355;SDS011;32066;49.474;11.106;2022-11-27T08:56:05;15.88;;;9.23;;
46355;SDS011;32066;49.474;11.106;2022-11-27T08:58:33;15.73;;;8.98;;
46355;SDS011;32066;49.474;11.106;2022-11-27T09:01:05;19.10;;;9.93;;
46355;SDS011;32066;49.474;11.106;2022-11-27T09:03:33;17.05;;;9.25;;
46355;SDS011;32066;49.474;11.106;2022-11-27T09:06:00;15.52;;;8.90;;
46355;SDS011;32066;49.474;11.106;2022-11-27T09:08:26;17.10;;;9.70;;
46355;SDS011;32066;49.474;11.106;2022-11-27T09:10:54;19.58;;;9.90;;
46355;SDS011;32066;49.474;11.106;2022-11-27T09:13:24;15.93;;;9.13;;
46355;SDS011;32066;49.474;11.106;2022-11-27T09:15:51;18.30;;;9.88;;
46355;SDS011;32066;49.474;11.106;2022-11-27T09:18:19;18.27;;;9.90;;
46355;SDS011;32066;49.474;11.106;2022-11-27T09:20:53;18.92;;;10.40;;
46355;SDS011;32066;49.474;11.106;2022-11-27T09:23:20;18.77;;;9.47;;
46355;SDS011;32066;49.474;11.106;2022-11-27T09:25:47;18.35;;;9.70;;
46355;SDS011;32066;49.474;11.106;2022-11-27T09:28:15;16.95;;;9.50;;
46355;SDS011;32066;49.474;11.106;2022-11-27T09:30:42;17.33;;;9.60;;
46355;SDS011;32066;49.474;11.106;2022-11-27T09:33:09;16.20;;;9.32;;
46355;SDS011;32066;49.474;11.106;2022-11-27T09:35:36;16.35;;;9.15;;
46355;SDS011;32066;49.474;11.106;2022-11-27T09:38:03;16.20;;;8.48;;
46355;SDS011;32066;49.474;11.106;2022-11-27T09:40:30;17.80;;;7.65;;
46355;SDS011;32066;49.474;11.106;2022-11-27T09:43:01;16.65;;;7.65;;
46355;SDS011;32066;49.474;11.106;2022-11-27T09:45:36;15.00;;;8.35;;
46355;SDS011;32066;49.474;11.106;2022-11-27T09:48:09;14.80;;;7.63;;
46355;SDS011;32066;49.474;11.106;2022-11-27T09:50:40;13.57;;;8.32;;
46355;SDS011;32066;49.474;11.106;2022-11-27T09:53:17;12.20;;;6.93;;
46355;SDS011;32066;49.474;11.106;2022-11-27T09:55:50;15.43;;;7.88;;
46355;SDS011;32066;49.474;11.106;2022-11-27T09:58:20;13.40;;;7.80;;
46355;SDS011;32066;49.474;11.106;2022-11-27T10:01:04;12.23;;;7.50;;
46355;SDS011;32066;49.474;11.106;2022-11-27T10:03:36;13.65;;;7.60;;
46355;SDS011;32066;49.474;11.106;2022-11-27T10:06:18;13.95;;;7.97;;
46355;SDS011;32066;49.474;11.106;2022-11-27T10:08:57;14.00;;;7.68;;
46355;SDS011;32066;49.474;11.106;2022-11-27T10:11:34;12.63;;;7.72;;
46355;SDS011;32066;49.474;11.106;2022-11-27T10:14:14;13.13;;;7.68;;
46355;SDS011;32066;49.474;11.106;2022-11-27T10:17:03;13.65;;;8.25;;
46355;SDS011;32066;49.474;11.106;2022-11-27T10:19:38;12.60;;;7.03;;
46355;SDS011;32066;49.474;11.106;2022-11-27T10:22:17;12.93;;;7.38;;
46355;SDS011;32066;49.474;11.106;2022-11-27T10:24:52;10.45;;;6.72;;
46355;SDS011;32066;49.474;11.106;2022-11-27T10:27:29;14.43;;;7.05;;
46355;SDS011;32066;49.474;11.106;2022-11-27T10:30:08;13.65;;;6.75;;
46355;SDS011;32066;49.474;11.106;2022-11-27T10:32:41;10.48;;;6.45;;
46355;SDS011;32066;49.474;11.106;2022-11-27T10:35:11;11.50;;;6.47;;
46355;SDS011;32066;49.474;11.106;2022-11-27T10:37:42;11.68;;;5.63;;
46355;SDS011;32066;49.474;11.106;2022-11-27T10:40:17;22.20;;;7.03;;
46355;SDS011;32066;49.474;11.106;2022-11-27T10:42:49;11.38;;;6.75;;
46355;SDS011;32066;49.474;11.106;2022-11-27T10:45:27;10.95;;;6.68;;
46355;SDS011;32066;49.474;11.106;2022-11-27T10:48:04;10.15;;;6.40;;
46355;SDS011;32066;49.474;11.106;2022-11-27T10:50:31;11.00;;;6.63;;
46355;SDS011;32066;49.474;11.106;2022-11-27T10:52:59;10.60;;;7.25;;
46355;SDS011;32066;49.474;11.106;2022-11-27T10:55:33;11.18;;;6.60;;
46355;SDS011;32066;49.474;11.106;2022-11-27T10:58:10;11.68;;;6.90;;
46355;SDS011;32066;49.474;11.106;2022-11-27T11:00:46;12.43;;;7.80;;
46355;SDS011;32066;49.474;11.106;2022-11-27T11:03:15;12.00;;;6.95;;
46355;SDS011;32066;49.474;11.106;2022-11-27T11:05:53;12.50;;;7.35;;
46355;SDS011;32066;49.474;11.106;2022-11-27T11:08:22;12.60;;;7.38;;
46355;SDS011;32066;49.474;11.106;2022-11-27T11:10:51;11.48;;;7.15;;
46355;SDS011;32066;49.474;11.106;2022-11-27T11:13:19;20.05;;;9.70;;
46355;SDS011;32066;49.474;11.106;2022-11-27T11:15:49;20.90;;;10.10;;
46355;SDS011;32066;49.474;11.106;2022-11-27T11:18:23;12.23;;;6.90;;
46355;SDS011;32066;49.474;11.106;2022-11-27T11:20:52;12.43;;;7.50;;
46355;SDS011;32066;49.474;11.106;2022-11-27T11:23:22;12.27;;;7.22;;
46355;SDS011;32066;49.474;11.106;2022-11-27T11:25:56;10.82;;;7.07;;
46355;SDS011;32066;49.474;11.106;2022-11-27T11:28:26;11.73;;;7.32;;
46355;SDS011;32066;49.474;11.106;2022-11-27T11:30:56;10.13;;;6.50;;
46355;SDS011;32066;49.474;11.106;2022-11-27T11:33:28;11.43;;;7.03;;
46355;SDS011;32066;49.474;11.106;2022-11-27T11:35:57;11.80;;;6.55;;
46355;SDS011;32066;49.474;11.106;2022-11-27T11:38:32;10.35;;;6.43;;
46355;SDS011;32066;49.474;11.106;2022-11-27T11:41:00;11.82;;;7.28;;
46355;SDS011;32066;49.474;11.106;2022-11-27T11:43:29;12.93;;;7.85;;
46355;SDS011;32066;49.474;11.106;2022-11-27T11:46:06;14.60;;;7.50;;
46355;SDS011;32066;49.474;11.106;2022-11-27T11:48:51;10.00;;;6.50;;
46355;SDS011;32066;49.474;11.106;2022-11-27T11:51:22;11.73;;;7.05;;
46355;SDS011;32066;49.474;11.106;2022-11-27T11:54:15;11.50;;;6.28;;
46355;SDS011;32066;49.474;11.106;2022-11-27T11:57:00;15.20;;;6.85;;
46355;SDS011;32066;49.474;11.106;2022-11-27T11:59:32;10.43;;;6.65;;
46355;SDS011;32066;49.474;11.106;2022-11-27T12:02:15;12.93;;;7.22;;
46355;SDS011;32066;49.474;11.106;2022-11-27T12:04:59;13.48;;;7.65;;
46355;SDS011;32066;49.474;11.106;2022-11-27T12:07:40;11.18;;;6.60;;
46355;SDS011;32066;49.474;11.106;2022-11-27T12:10:17;11.85;;;6.75;;
46355;SDS011;32066;49.474;11.106;2022-11-27T12:12:51;11.85;;;6.95;;
46355;SDS011;32066;49.474;11.106;2022-11-27T12:15:25;12.60;;;6.68;;
46355;SDS011;32066;49.474;11.106;2022-11-27T12:17:57;11.68;;;6.72;;
46355;SDS011;32066;49.474;11.106;2022-11-27T12:20:32;10.68;;;6.60;;
46355;SDS011;32066;49.474;11.106;2022-11-27T12:23:23;11.68;;;7.43;;
46355;SDS011;32066;49.474;11.106;2022-11-27T12:26:03;11.70;;;6.57;;
46355;SDS011;32066;49.474;11.106;2022-11-27T12:31:39;13.93;;;7.10;;
46355;SDS011;32066;49.474;11.106;2022-11-27T12:34:17;10.25;;;6.57;;
46355;SDS011;32066;49.474;11.106;2022-11-27T12:36:56;10.38;;;5.78;;
46355;SDS011;32066;49.474;11.106;2022-11-27T12:39:41;12.98;;;6.50;;
46355;SDS011;32066;49.474;11.106;2022-11-27T12:42:18;12.25;;;6.47;;
46355;SDS011;32066;49.474;11.106;2022-11-27T12:44:52;12.02;;;6.80;;
46355;SDS011;32066;49.474;11.106;2022-11-27T12:47:23;9.02;;;5.97;;
46355;SDS011;32066;49.474;11.106;2022-11-27T12:49:54;12.00;;;6.43;;
46355;SDS011;32066;49.474;11.106;2022-11-27T12:52:27;10.93;;;6.70;;
46355;SDS011;32066;49.474;11.106;2022-11-27T12:54:58;10.40;;;6.43;;
46355;SDS011;32066;49.474;11.106;2022-11-27T12:57:32;11.38;;;6.50;;
46355;SDS011;32066;49.474;11.106;2022-11-27T13:00:05;10.63;;;6.10;;
46355;SDS011;32066;49.474;11.106;2022-11-27T13:02:40;11.67;;;6.67;;
46355;SDS011;32066;49.474;11.106;2022-11-27T13:05:11;9.38;;;6.15;;
46355;SDS011;32066;49.474;11.106;2022-11-27T13:07:45;11.07;;;6.32;;
46355;SDS011;32066;49.474;11.106;2022-11-27T13:10:17;10.48;;;6.75;;
46355;SDS011;32066;49.474;11.106;2022-11-27T13:12:49;10.50;;;6.53;;
46355;SDS011;32066;49.474;11.106;2022-11-27T13:15:23;10.05;;;6.20;;
46355;SDS011;32066;49.474;11.106;2022-11-27T13:17:56;9.68;;;6.28;;
46355;SDS011;32066;49.474;11.106;2022-11-27T13:20:30;11.75;;;6.30;;
46355;SDS011;32066;49.474;11.106;2022-11-27T13:23:02;9.75;;;6.53;;
46355;SDS011;32066;49.474;11.106;2022-11-27T13:25:29;11.43;;;6.40;;
46355;SDS011;32066;49.474;11.106;2022-11-27T13:27:59;11.57;;;6.72;;
46355;SDS011;32066;49.474;11.106;2022-11-27T13:30:31;11.23;;;6.50;;
46355;SDS011;32066;49.474;11.106;2022-11-27T13:33:00;11.23;;;6.50;;
46355;SDS011;32066;49.474;11.106;2022-11-27T13:35:35;12.13;;;7.00;;
46355;SDS011;32066;49.474;11.106;2022-11-27T13:38:06;10.20;;;6.63;;
46355;SDS011;32066;49.474;11.106;2022-11-27T13:40:37;12.20;;;7.03;;
46355;SDS011;32066;49.474;11.106;2022-11-27T13:43:14;10.77;;;6.80;;
46355;SDS011;32066;49.474;11.106;2022-11-27T13:45:46;11.45;;;7.28;;
46355;SDS011;32066;49.474;11.106;2022-11-27T13:48:18;11.90;;;6.78;;
46355;SDS011;32066;49.474;11.106;2022-11-27T13:50:51;10.85;;;6.30;;
46355;SDS011;32066;49.474;11.106;2022-11-27T13:53:21;10.13;;;5.95;;
46355;SDS011;32066;49.474;11.106;2022-11-27T13:55:56;11.25;;;6.78;;
46355;SDS011;32066;49.474;11.106;2022-11-27T13:58:27;9.98;;;6.40;;
46355;SDS011;32066;49.474;11.106;2022-11-27T14:00:56;10.45;;;6.55;;
46355;SDS011;32066;49.474;11.106;2022-11-27T14:03:24;11.43;;;7.00;;
46355;SDS011;32066;49.474;11.106;2022-11-27T14:05:53;11.65;;;6.93;;
46355;SDS011;32066;49.474;11.106;2022-11-27T14:08:23;11.57;;;6.90;;
46355;SDS011;32066;49.474;11.106;2022-11-27T14:10:56;11.02;;;6.88;;
46355;SDS011;32066;49.474;11.106;2022-11-27T14:13:31;10.43;;;6.80;;
46355;SDS011;32066;49.474;11.106;2022-11-27T14:16:06;11.38;;;6.70;;
46355;SDS011;32066;49.474;11.106;2022-11-27T14:18:55;11.32;;;7.18;;
46355;SDS011;32066;49.474;11.106;2022-11-27T14:21:24;11.02;;;7.15;;
46355;SDS011;32066;49.474;11.106;2022-11-27T14:24:01;10.82;;;6.38;;
46355;SDS011;32066;49.474;11.106;2022-11-27T14:26:31;11.77;;;6.90;;
46355;SDS011;32066;49.474;11.106;2022-11-27T14:28:58;9.90;;;6.68;;
46355;SDS011;32066;49.474;11.106;2022-11-27T14:31:27;10.52;;;6.85;;
46355;SDS011;32066;49.474;11.106;2022-11-27T14:33:54;10.02;;;6.65;;
46355;SDS011;32066;49.474;11.106;2022-11-27T14:36:23;10.00;;;6.28;;
46355;SDS011;32066;49.474;11.106;2022-11-27T14:38:50;10.57;;;7.05;;
46355;SDS011;32066;49.474;11.106;2022-11-27T14:41:20;10.82;;;6.68;;
46355;SDS011;32066;49.474;11.106;2022-11-27T14:43:47;12.85;;;6.75;;
46355;SDS011;32066;49.474;11.106;2022-11-27T14:46:25;10.95;;;6.68;;